createdAt,value
2018-04-10T00:00:03.189Z,0
2018-04-10T00:05:03.786Z,1
2018-04-10T00:10:03.646Z,3
2018-04-10T00:15:03.306Z,0
2018-04-10T00:20:02.982Z,1
2018-04-10T00:25:03.640Z,2
2018-04-10T00:30:03.693Z,1
2018-04-10T00:35:03.389Z,0
2018-04-10T00:40:03.058Z,0
2018-04-10T00:45:02.701Z,0
2018-04-10T00:50:03.224Z,0
2018-04-10T00:55:02.812Z,0
2018-04-10T01:00:03.423Z,0
2018-04-10T01:05:03.076Z,0
2018-04-10T01:10:02.771Z,0
2018-04-10T01:15:03.265Z,0
2018-04-10T01:20:02.771Z,2
2018-04-10T01:25:03.407Z,2
2018-04-10T01:30:02.980Z,0
2018-04-10T01:35:03.547Z,0
2018-04-10T01:40:03.202Z,1
2018-04-10T01:45:02.875Z,2
2018-04-10T01:50:03.477Z,2
2018-04-10T01:55:03.004Z,3
2018-04-10T02:00:03.611Z,3
2018-04-10T02:05:03.277Z,3
2018-04-10T02:15:03.444Z,3
2018-04-10T02:20:03.153Z,3
2018-04-10T02:25:02.762Z,0
2018-04-10T02:30:03.337Z,3
2018-04-10T02:35:03.137Z,1
2018-04-10T02:40:02.755Z,0
2018-04-10T02:45:03.358Z,0
2018-04-10T02:50:02.881Z,0
2018-04-10T02:55:03.510Z,0
2018-04-10T03:00:03.048Z,2
2018-04-10T03:05:03.606Z,0
2018-04-10T03:10:03.253Z,0
2018-04-10T03:15:02.835Z,0
2018-04-10T03:20:02.691Z,0
2018-04-10T03:25:03.581Z,0
2018-04-10T03:50:02.742Z,1
2018-04-10T03:55:03.251Z,0
2018-04-10T04:00:02.951Z,1
2018-04-10T04:05:03.542Z,2
2018-04-10T04:10:03.156Z,1
2018-04-10T04:15:02.813Z,0
2018-04-10T04:20:03.337Z,0
2018-04-10T04:25:02.906Z,0
2018-04-10T04:30:02.800Z,0
2018-04-10T04:35:03.383Z,0
2018-04-10T04:40:03.063Z,0
2018-04-10T04:45:02.740Z,0
2018-04-10T04:50:03.409Z,0
2018-04-10T04:55:02.987Z,0
2018-04-10T05:00:03.557Z,2
2018-04-10T05:05:03.132Z,2
2018-04-10T05:10:02.786Z,0
2018-04-10T05:15:03.353Z,0
2018-04-10T05:20:03.037Z,0
2018-04-10T05:25:02.682Z,0
2018-04-10T05:30:03.261Z,0
2018-04-10T05:35:02.843Z,0
2018-04-10T05:40:03.528Z,0
2018-04-10T05:45:03.191Z,0
2018-04-10T05:50:02.871Z,0
2018-04-10T05:55:03.451Z,0
2018-04-10T06:00:03.406Z,0
2018-04-10T06:05:03.079Z,0
2018-04-10T06:10:02.765Z,0
2018-04-10T06:15:03.347Z,0
2018-04-10T06:20:02.987Z,0
2018-04-10T06:25:03.588Z,0
2018-04-10T06:30:03.167Z,0
2018-04-10T06:35:02.876Z,0
2018-04-10T06:40:03.568Z,0
2018-04-10T06:45:03.187Z,0
2018-04-10T06:50:02.814Z,0
2018-04-10T06:55:03.416Z,0
2018-04-10T07:00:03.752Z,1
2018-04-10T07:05:03.527Z,0
2018-04-10T07:10:05.665Z,2
2018-04-10T07:15:02.952Z,1
2018-04-10T07:20:02.685Z,0
2018-04-10T07:25:03.284Z,0
2018-04-10T07:30:02.889Z,2
2018-04-10T07:35:03.620Z,2
2018-04-10T07:40:03.284Z,1
2018-04-10T07:45:02.865Z,3
2018-04-10T07:50:03.471Z,1
2018-04-10T07:55:03.045Z,2
2018-04-10T08:00:02.681Z,2
2018-04-10T08:05:03.356Z,0
2018-04-10T08:10:05.101Z,0
2018-04-10T08:15:02.694Z,0
2018-04-10T08:20:04.543Z,2
2018-04-10T08:25:03.200Z,1
2018-04-10T08:30:02.845Z,1
2018-04-10T08:35:06.626Z,0
2018-04-10T08:40:03.212Z,2
2018-04-10T08:45:03.209Z,0
2018-04-10T08:50:02.923Z,2
2018-04-10T08:55:03.545Z,1
2018-04-10T09:00:03.166Z,3
2018-04-10T09:05:02.750Z,1
2018-04-10T09:10:03.388Z,0
2018-04-10T09:15:02.959Z,2
2018-04-10T09:20:02.689Z,0
2018-04-10T09:25:03.284Z,3
2018-04-10T09:30:02.860Z,0
2018-04-10T09:35:03.507Z,0
2018-04-10T09:40:03.188Z,0
2018-04-10T09:45:02.731Z,0
2018-04-10T09:50:03.346Z,0
2018-04-10T09:55:02.908Z,0
2018-04-10T10:00:03.434Z,0
2018-04-10T10:05:03.047Z,0
2018-04-10T10:10:02.736Z,0
2018-04-10T10:15:03.371Z,0
2018-04-10T10:20:03.055Z,0
2018-04-10T10:25:02.610Z,0
2018-04-10T10:30:03.254Z,0
2018-04-10T10:35:02.938Z,0
2018-04-10T10:40:02.666Z,0
2018-04-10T10:45:03.261Z,2
2018-04-10T10:50:02.873Z,0
2018-04-10T10:55:03.481Z,3
2018-04-10T11:00:03.104Z,1
2018-04-10T11:05:02.949Z,0
2018-04-10T11:10:02.661Z,0
2018-04-10T11:15:03.227Z,2
2018-04-10T11:20:02.813Z,2
2018-04-10T11:25:03.711Z,0
2018-04-10T11:30:03.347Z,0
2018-04-10T11:35:02.965Z,0
2018-04-10T11:40:03.561Z,1
2018-04-10T11:45:03.140Z,0
2018-04-10T11:50:02.762Z,0
2018-04-10T11:55:03.464Z,0
2018-04-10T12:00:03.004Z,0
2018-04-10T12:05:02.633Z,0
2018-04-10T12:10:03.449Z,2
2018-04-10T12:15:02.946Z,0
2018-04-10T12:20:03.551Z,0
2018-04-10T12:25:03.080Z,0
2018-04-10T12:30:02.785Z,0
2018-04-10T12:35:03.441Z,0
2018-04-10T12:40:03.086Z,2
2018-04-10T12:45:03.053Z,1
2018-04-10T12:50:03.156Z,0
2018-04-10T12:55:02.733Z,0
2018-04-10T13:00:03.345Z,0
2018-04-10T13:05:03.019Z,2
2018-04-10T13:10:02.722Z,0
2018-04-10T13:15:03.286Z,0
2018-04-10T13:20:02.956Z,0
2018-04-10T13:25:03.571Z,0
2018-04-10T13:30:03.188Z,0
2018-04-10T13:35:02.895Z,0
2018-04-10T13:40:03.572Z,0
2018-04-10T13:45:03.231Z,0
2018-04-10T13:50:02.879Z,0
2018-04-10T13:55:03.511Z,1
2018-04-10T14:00:03.160Z,0
2018-04-10T14:05:02.850Z,1
2018-04-10T14:10:03.482Z,0
2018-04-10T14:15:03.133Z,0
2018-04-10T14:20:02.812Z,2
2018-04-10T14:25:03.457Z,0
2018-04-10T14:30:03.039Z,0
2018-04-10T14:35:02.702Z,2
2018-04-10T14:40:03.373Z,3
2018-04-10T14:45:03.262Z,3
2018-04-10T14:50:02.947Z,0
2018-04-10T14:55:03.518Z,3
2018-04-10T15:00:03.056Z,2
2018-04-10T15:05:02.708Z,1
2018-04-10T15:10:03.287Z,3
2018-04-10T15:15:02.806Z,1
2018-04-10T15:20:03.326Z,0
2018-04-10T15:25:02.903Z,2
2018-04-10T15:30:03.578Z,2
2018-04-10T15:35:03.263Z,1
2018-04-10T15:40:02.862Z,0
2018-04-10T15:45:03.527Z,3
2018-04-10T15:50:03.141Z,0
2018-04-10T15:55:02.781Z,2
2018-04-10T16:00:03.309Z,2
2018-04-10T16:05:03.032Z,2
2018-04-10T16:10:02.706Z,0
2018-04-10T16:15:03.257Z,0
2018-04-10T16:20:02.908Z,2
2018-04-10T16:25:03.510Z,1
2018-04-10T16:30:03.106Z,1
2018-04-10T16:35:02.827Z,2
2018-04-10T16:40:03.532Z,1
2018-04-10T16:45:03.219Z,2
2018-04-10T16:50:02.890Z,1
2018-04-10T16:55:03.401Z,3
2018-04-10T17:00:02.984Z,1
2018-04-10T17:05:03.600Z,2
2018-04-10T17:10:03.205Z,0
2018-04-10T17:15:02.724Z,1
2018-04-10T17:20:03.369Z,0
2018-04-10T17:25:02.900Z,3
2018-04-10T17:30:03.479Z,0
2018-04-10T17:35:03.031Z,1
2018-04-10T17:40:02.619Z,0
2018-04-10T17:45:03.152Z,1
2018-04-10T17:50:02.714Z,0
2018-04-10T17:55:03.335Z,0
2018-04-10T18:00:02.963Z,0
2018-04-10T18:05:03.549Z,0
2018-04-10T18:10:03.277Z,0
2018-04-10T18:15:02.879Z,0
2018-04-10T18:20:03.486Z,0
2018-04-10T18:25:03.085Z,0
2018-04-10T18:30:02.642Z,0
2018-04-10T18:35:03.342Z,0
2018-04-10T18:40:02.965Z,0
2018-04-10T18:45:03.560Z,0
2018-04-10T18:50:03.141Z,0
2018-04-10T18:55:02.709Z,0
2018-04-10T19:00:03.273Z,0
2018-04-10T19:05:02.941Z,0
2018-04-10T19:10:03.569Z,0
2018-04-10T19:15:03.154Z,0
2018-04-10T19:20:02.727Z,0
2018-04-10T19:25:03.239Z,0
2018-04-10T19:30:02.895Z,0
2018-04-10T19:35:03.488Z,0
2018-04-10T19:40:03.080Z,0
2018-04-10T19:45:02.702Z,0
2018-04-10T19:50:03.348Z,0
2018-04-10T19:55:02.905Z,0
2018-04-10T20:00:03.884Z,0
2018-04-10T20:05:03.485Z,0
2018-04-10T20:10:03.105Z,0
2018-04-10T20:15:02.694Z,2
2018-04-10T20:20:03.400Z,0
2018-04-10T20:25:02.955Z,2
2018-04-10T20:30:03.518Z,2
2018-04-10T20:35:03.157Z,3
2018-04-10T20:40:02.778Z,2
2018-04-10T20:45:03.509Z,6
2018-04-10T20:50:03.145Z,5
2018-04-10T20:55:02.686Z,4
2018-04-10T21:00:03.308Z,5
2018-04-10T21:05:03.042Z,6
2018-04-10T21:10:02.783Z,8
2018-04-10T21:15:03.441Z,4
2018-04-10T21:20:03.095Z,6
2018-04-10T21:25:02.577Z,4
2018-04-10T21:30:03.382Z,3
2018-04-10T21:35:02.936Z,8
2018-04-10T21:40:03.530Z,5
2018-04-10T21:45:03.020Z,3
2018-04-10T21:50:03.504Z,2
2018-04-10T21:55:03.128Z,5
2018-04-10T22:00:02.794Z,3
2018-04-10T22:05:03.292Z,9
2018-04-10T22:10:02.952Z,4
2018-04-10T22:15:03.555Z,4
2018-04-10T22:20:03.099Z,3
2018-04-10T22:25:02.615Z,3
2018-04-10T22:30:03.561Z,4
2018-04-10T22:35:03.123Z,3
2018-04-10T22:40:02.761Z,2
2018-04-10T22:45:03.289Z,0
2018-04-10T22:50:02.977Z,0
2018-04-10T22:55:03.529Z,0
2018-04-10T23:00:05.418Z,0
2018-04-10T23:05:03.105Z,0
2018-04-10T23:10:02.792Z,0
2018-04-10T23:15:03.311Z,0
2018-04-10T23:20:02.912Z,0
2018-04-10T23:25:03.507Z,0
2018-04-10T23:30:03.065Z,0
2018-04-10T23:35:02.676Z,0
2018-04-10T23:40:03.280Z,0
2018-04-10T23:45:02.878Z,0
2018-04-10T23:50:03.458Z,0
2018-04-10T23:55:03.234Z,0
